sensor_id;sensor_type;location;lat;lon;timestamp;temperature;humidity
62809;DHT22;48848;39.002;-94.584;2022-10-29T00:00:49;22.00;46.20
62809;DHT22;48848;39.002;-94.584;2022-10-29T00:03:16;22.00;46.10
62809;DHT22;48848;39.002;-94.584;2022-10-29T00:05:42;22.00;46.20
62809;DHT22;48848;39.002;-94.584;2022-10-29T00:08:08;22.00;46.50
62809;DHT22;48848;39.002;-94.584;2022-10-29T00:10:35;22.00;46.40
62809;DHT22;48848;39.002;-94.584;2022-10-29T00:13:02;22.00;46.50
62809;DHT22;48848;39.002;-94.584;2022-10-29T00:15:29;21.90;46.30
62809;DHT22;48848;39.002;-94.584;2022-10-29T00:17:55;21.90;46.20
62809;DHT22;48848;39.002;-94.584;2022-10-29T00:20:21;21.90;46.30
62809;DHT22;48848;39.002;-94.584;2022-10-29T00:22:52;21.80;45.90
62809;DHT22;48848;39.002;-94.584;2022-10-29T00:25:18;21.80;46.00
62809;DHT22;48848;39.002;-94.584;2022-10-29T00:27:45;21.90;46.00
62809;DHT22;48848;39.002;-94.584;2022-10-29T00:30:11;21.80;45.80
62809;DHT22;48848;39.002;-94.584;2022-10-29T00:32:38;21.80;46.00
62809;DHT22;48848;39.002;-94.584;2022-10-29T00:35:04;21.80;46.10
62809;DHT22;48848;39.002;-94.584;2022-10-29T00:37:31;21.80;46.00
62809;DHT22;48848;39.002;-94.584;2022-10-29T00:39:57;21.80;45.60
62809;DHT22;48848;39.002;-94.584;2022-10-29T00:42:23;21.80;45.50
62809;DHT22;48848;39.002;-94.584;2022-10-29T00:44:50;21.70;45.60
62809;DHT22;48848;39.002;-94.584;2022-10-29T00:47:35;21.70;45.70
62809;DHT22;48848;39.002;-94.584;2022-10-29T00:50:07;21.70;45.60
62809;DHT22;48848;39.002;-94.584;2022-10-29T00:52:40;21.70;45.60
62809;DHT22;48848;39.002;-94.584;2022-10-29T00:55:09;21.70;45.60
62809;DHT22;48848;39.002;-94.584;2022-10-29T00:57:39;21.70;46.00
62809;DHT22;48848;39.002;-94.584;2022-10-29T01:00:08;21.70;45.70
62809;DHT22;48848;39.002;-94.584;2022-10-29T01:02:35;21.60;45.70
62809;DHT22;48848;39.002;-94.584;2022-10-29T01:05:03;21.70;45.60
62809;DHT22;48848;39.002;-94.584;2022-10-29T01:07:30;21.60;45.60
62809;DHT22;48848;39.002;-94.584;2022-10-29T01:09:57;21.60;45.50
62809;DHT22;48848;39.002;-94.584;2022-10-29T01:26:23;21.50;45.40
62809;DHT22;48848;39.002;-94.584;2022-10-29T01:31:34;21.50;45.40
62809;DHT22;48848;39.002;-94.584;2022-10-29T01:34:32;21.40;45.30
62809;DHT22;48848;39.002;-94.584;2022-10-29T01:37:10;21.40;45.20
62809;DHT22;48848;39.002;-94.584;2022-10-29T01:39:56;21.40;45.30
62809;DHT22;48848;39.002;-94.584;2022-10-29T01:45:20;21.40;45.20
62809;DHT22;48848;39.002;-94.584;2022-10-29T01:48:01;21.30;45.30
62809;DHT22;48848;39.002;-94.584;2022-10-29T01:50:30;21.30;46.30
62809;DHT22;48848;39.002;-94.584;2022-10-29T01:52:57;21.30;45.00
62809;DHT22;48848;39.002;-94.584;2022-10-29T01:55:32;21.30;45.10
62809;DHT22;48848;39.002;-94.584;2022-10-29T01:58:04;21.30;45.10
62809;DHT22;48848;39.002;-94.584;2022-10-29T02:00:50;21.20;45.10
62809;DHT22;48848;39.002;-94.584;2022-10-29T02:09:14;21.10;45.20
62809;DHT22;48848;39.002;-94.584;2022-10-29T02:17:19;21.00;45.30
62809;DHT22;48848;39.002;-94.584;2022-10-29T02:19:46;21.00;45.40
62809;DHT22;48848;39.002;-94.584;2022-10-29T02:22:12;20.90;45.30
62809;DHT22;48848;39.002;-94.584;2022-10-29T02:24:38;21.00;45.30
62809;DHT22;48848;39.002;-94.584;2022-10-29T02:27:05;20.90;45.30
62809;DHT22;48848;39.002;-94.584;2022-10-29T02:29:32;20.90;45.30
62809;DHT22;48848;39.002;-94.584;2022-10-29T02:31:58;20.80;45.30
62809;DHT22;48848;39.002;-94.584;2022-10-29T02:34:24;20.90;45.60
62809;DHT22;48848;39.002;-94.584;2022-10-29T02:36:51;20.90;45.90
62809;DHT22;48848;39.002;-94.584;2022-10-29T02:39:17;20.80;45.80
62809;DHT22;48848;39.002;-94.584;2022-10-29T02:41:43;20.90;46.00
62809;DHT22;48848;39.002;-94.584;2022-10-29T02:44:10;20.80;46.10
62809;DHT22;48848;39.002;-94.584;2022-10-29T02:46:36;20.80;46.00
62809;DHT22;48848;39.002;-94.584;2022-10-29T02:49:05;20.80;46.20
62809;DHT22;48848;39.002;-94.584;2022-10-29T02:51:31;20.80;46.10
62809;DHT22;48848;39.002;-94.584;2022-10-29T02:53:58;20.70;46.20
62809;DHT22;48848;39.002;-94.584;2022-10-29T02:56:24;20.70;46.10
62809;DHT22;48848;39.002;-94.584;2022-10-29T02:58:50;20.70;46.00
62809;DHT22;48848;39.002;-94.584;2022-10-29T03:01:16;20.60;46.00
62809;DHT22;48848;39.002;-94.584;2022-10-29T03:03:43;20.60;46.00
62809;DHT22;48848;39.002;-94.584;2022-10-29T03:06:13;20.60;45.90
62809;DHT22;48848;39.002;-94.584;2022-10-29T03:08:40;20.60;45.80
62809;DHT22;48848;39.002;-94.584;2022-10-29T03:11:07;20.50;45.90
62809;DHT22;48848;39.002;-94.584;2022-10-29T03:13:33;20.50;45.90
62809;DHT22;48848;39.002;-94.584;2022-10-29T03:15:59;20.50;45.90
62809;DHT22;48848;39.002;-94.584;2022-10-29T03:18:25;20.50;46.00
62809;DHT22;48848;39.002;-94.584;2022-10-29T03:20:52;20.50;46.00
62809;DHT22;48848;39.002;-94.584;2022-10-29T03:23:18;20.40;46.10
62809;DHT22;48848;39.002;-94.584;2022-10-29T03:25:52;20.40;46.20
62809;DHT22;48848;39.002;-94.584;2022-10-29T03:28:24;20.40;46.10
62809;DHT22;48848;39.002;-94.584;2022-10-29T03:30:52;20.40;46.20
62809;DHT22;48848;39.002;-94.584;2022-10-29T03:33:18;20.30;46.20
62809;DHT22;48848;39.002;-94.584;2022-10-29T03:35:45;20.30;45.90
62809;DHT22;48848;39.002;-94.584;2022-10-29T03:38:11;20.30;46.20
62809;DHT22;48848;39.002;-94.584;2022-10-29T03:40:39;20.30;46.20
62809;DHT22;48848;39.002;-94.584;2022-10-29T03:43:05;20.20;46.20
62809;DHT22;48848;39.002;-94.584;2022-10-29T03:45:31;20.20;46.20
62809;DHT22;48848;39.002;-94.584;2022-10-29T03:47:58;20.20;46.20
62809;DHT22;48848;39.002;-94.584;2022-10-29T03:50:24;20.20;46.40
62809;DHT22;48848;39.002;-94.584;2022-10-29T03:52:50;20.20;46.30
62809;DHT22;48848;39.002;-94.584;2022-10-29T03:55:17;20.20;46.10
62809;DHT22;48848;39.002;-94.584;2022-10-29T03:57:43;20.20;46.10
62809;DHT22;48848;39.002;-94.584;2022-10-29T04:00:10;20.20;46.00
62809;DHT22;48848;39.002;-94.584;2022-10-29T04:02:36;20.10;46.10
62809;DHT22;48848;39.002;-94.584;2022-10-29T04:05:02;20.10;45.70
62809;DHT22;48848;39.002;-94.584;2022-10-29T04:07:28;20.10;45.60
62809;DHT22;48848;39.002;-94.584;2022-10-29T04:09:55;20.10;45.30
62809;DHT22;48848;39.002;-94.584;2022-10-29T04:12:21;20.10;45.60
62809;DHT22;48848;39.002;-94.584;2022-10-29T04:14:47;20.10;46.20
62809;DHT22;48848;39.002;-94.584;2022-10-29T04:17:13;20.00;46.90
62809;DHT22;48848;39.002;-94.584;2022-10-29T04:19:40;20.00;46.20
62809;DHT22;48848;39.002;-94.584;2022-10-29T04:22:06;20.00;46.40
62809;DHT22;48848;39.002;-94.584;2022-10-29T04:24:32;20.00;46.50
62809;DHT22;48848;39.002;-94.584;2022-10-29T04:26:59;19.90;46.60
62809;DHT22;48848;39.002;-94.584;2022-10-29T04:29:25;19.90;46.60
62809;DHT22;48848;39.002;-94.584;2022-10-29T04:31:51;19.90;46.70
62809;DHT22;48848;39.002;-94.584;2022-10-29T04:34:18;19.80;46.60
62809;DHT22;48848;39.002;-94.584;2022-10-29T04:36:44;19.80;46.70
62809;DHT22;48848;39.002;-94.584;2022-10-29T04:39:10;19.80;46.60
62809;DHT22;48848;39.002;-94.584;2022-10-29T04:41:36;19.80;46.60
62809;DHT22;48848;39.002;-94.584;2022-10-29T04:44:03;19.80;46.50
62809;DHT22;48848;39.002;-94.584;2022-10-29T04:46:29;19.80;46.70
62809;DHT22;48848;39.002;-94.584;2022-10-29T04:48:55;19.80;46.70
62809;DHT22;48848;39.002;-94.584;2022-10-29T04:51:24;19.70;46.70
62809;DHT22;48848;39.002;-94.584;2022-10-29T04:53:50;19.70;46.80
62809;DHT22;48848;39.002;-94.584;2022-10-29T04:56:17;19.70;46.80
62809;DHT22;48848;39.002;-94.584;2022-10-29T04:58:43;19.70;46.80
62809;DHT22;48848;39.002;-94.584;2022-10-29T05:01:09;19.70;46.80
62809;DHT22;48848;39.002;-94.584;2022-10-29T05:03:36;19.70;46.90
62809;DHT22;48848;39.002;-94.584;2022-10-29T05:06:03;19.70;46.80
62809;DHT22;48848;39.002;-94.584;2022-10-29T05:08:30;19.60;46.90
62809;DHT22;48848;39.002;-94.584;2022-10-29T05:10:59;19.60;46.70
62809;DHT22;48848;39.002;-94.584;2022-10-29T05:13:26;19.60;46.90
62809;DHT22;48848;39.002;-94.584;2022-10-29T05:15:52;19.50;46.90
62809;DHT22;48848;39.002;-94.584;2022-10-29T05:18:18;19.50;47.00
62809;DHT22;48848;39.002;-94.584;2022-10-29T05:20:44;19.50;47.00
62809;DHT22;48848;39.002;-94.584;2022-10-29T05:23:11;19.50;47.00
62809;DHT22;48848;39.002;-94.584;2022-10-29T05:25:39;19.40;46.90
62809;DHT22;48848;39.002;-94.584;2022-10-29T05:28:13;19.40;47.00
62809;DHT22;48848;39.002;-94.584;2022-10-29T05:30:40;19.40;47.00
62809;DHT22;48848;39.002;-94.584;2022-10-29T05:33:07;19.40;47.10
62809;DHT22;48848;39.002;-94.584;2022-10-29T05:35:34;19.40;47.20
62809;DHT22;48848;39.002;-94.584;2022-10-29T05:38:01;19.30;47.10
62809;DHT22;48848;39.002;-94.584;2022-10-29T05:40:27;19.30;48.00
62809;DHT22;48848;39.002;-94.584;2022-10-29T05:43:27;19.30;46.90
62809;DHT22;48848;39.002;-94.584;2022-10-29T05:46:21;19.20;47.20
62809;DHT22;48848;39.002;-94.584;2022-10-29T05:48:47;19.20;46.90
62809;DHT22;48848;39.002;-94.584;2022-10-29T05:51:13;19.30;47.10
62809;DHT22;48848;39.002;-94.584;2022-10-29T05:53:40;19.20;47.20
62809;DHT22;48848;39.002;-94.584;2022-10-29T05:56:06;19.20;47.30
62809;DHT22;48848;39.002;-94.584;2022-10-29T05:58:32;19.20;47.10
62809;DHT22;48848;39.002;-94.584;2022-10-29T06:00:58;19.20;47.30
62809;DHT22;48848;39.002;-94.584;2022-10-29T06:03:24;19.20;47.40
62809;DHT22;48848;39.002;-94.584;2022-10-29T06:05:51;19.20;47.40
62809;DHT22;48848;39.002;-94.584;2022-10-29T06:08:17;19.10;47.30
62809;DHT22;48848;39.002;-94.584;2022-10-29T06:10:43;19.10;47.40
62809;DHT22;48848;39.002;-94.584;2022-10-29T06:13:11;19.10;47.40
62809;DHT22;48848;39.002;-94.584;2022-10-29T06:16:08;19.00;47.50
62809;DHT22;48848;39.002;-94.584;2022-10-29T06:18:34;19.00;47.40
62809;DHT22;48848;39.002;-94.584;2022-10-29T06:21:00;19.00;47.10
62809;DHT22;48848;39.002;-94.584;2022-10-29T06:23:27;19.00;47.40
62809;DHT22;48848;39.002;-94.584;2022-10-29T06:25:53;19.00;46.90
62809;DHT22;48848;39.002;-94.584;2022-10-29T06:28:19;19.00;46.60
62809;DHT22;48848;39.002;-94.584;2022-10-29T06:30:47;19.00;46.20
62809;DHT22;48848;39.002;-94.584;2022-10-29T06:33:15;19.10;46.90
62809;DHT22;48848;39.002;-94.584;2022-10-29T06:35:41;19.00;48.10
62809;DHT22;48848;39.002;-94.584;2022-10-29T06:38:08;19.00;46.80
62809;DHT22;48848;39.002;-94.584;2022-10-29T06:40:34;19.00;46.60
62809;DHT22;48848;39.002;-94.584;2022-10-29T06:43:03;19.00;47.10
62809;DHT22;48848;39.002;-94.584;2022-10-29T06:45:30;18.90;46.90
62809;DHT22;48848;39.002;-94.584;2022-10-29T06:47:57;19.00;46.10
62809;DHT22;48848;39.002;-94.584;2022-10-29T06:50:24;18.90;46.10
62809;DHT22;48848;39.002;-94.584;2022-10-29T06:53:02;19.00;45.70
62809;DHT22;48848;39.002;-94.584;2022-10-29T06:55:28;19.00;46.40
62809;DHT22;48848;39.002;-94.584;2022-10-29T06:57:56;18.90;46.50
62809;DHT22;48848;39.002;-94.584;2022-10-29T07:00:23;18.90;46.90
62809;DHT22;48848;39.002;-94.584;2022-10-29T07:02:49;18.90;46.00
62809;DHT22;48848;39.002;-94.584;2022-10-29T07:05:16;18.90;45.90
62809;DHT22;48848;39.002;-94.584;2022-10-29T07:07:42;18.90;46.00
62809;DHT22;48848;39.002;-94.584;2022-10-29T07:10:08;18.80;45.90
62809;DHT22;48848;39.002;-94.584;2022-10-29T07:12:41;18.80;45.90
62809;DHT22;48848;39.002;-94.584;2022-10-29T07:15:08;18.80;45.90
62809;DHT22;48848;39.002;-94.584;2022-10-29T07:17:35;18.80;46.10
62809;DHT22;48848;39.002;-94.584;2022-10-29T07:20:01;18.80;46.40
62809;DHT22;48848;39.002;-94.584;2022-10-29T07:22:28;18.80;45.90
62809;DHT22;48848;39.002;-94.584;2022-10-29T07:24:54;18.70;46.30
62809;DHT22;48848;39.002;-94.584;2022-10-29T07:27:20;18.70;46.00
62809;DHT22;48848;39.002;-94.584;2022-10-29T07:29:46;18.70;45.80
62809;DHT22;48848;39.002;-94.584;2022-10-29T07:32:13;18.70;46.20
62809;DHT22;48848;39.002;-94.584;2022-10-29T07:34:39;18.60;46.10
62809;DHT22;48848;39.002;-94.584;2022-10-29T07:37:06;18.60;46.00
62809;DHT22;48848;39.002;-94.584;2022-10-29T07:39:32;18.60;46.00
62809;DHT22;48848;39.002;-94.584;2022-10-29T07:41:58;18.60;45.80
62809;DHT22;48848;39.002;-94.584;2022-10-29T07:44:24;18.60;45.90
62809;DHT22;48848;39.002;-94.584;2022-10-29T07:46:50;18.60;46.00
62809;DHT22;48848;39.002;-94.584;2022-10-29T07:49:16;18.60;46.10
62809;DHT22;48848;39.002;-94.584;2022-10-29T07:51:42;18.50;46.10
62809;DHT22;48848;39.002;-94.584;2022-10-29T07:54:09;18.50;45.90
62809;DHT22;48848;39.002;-94.584;2022-10-29T07:56:35;18.50;46.10
62809;DHT22;48848;39.002;-94.584;2022-10-29T07:59:01;18.50;46.00
62809;DHT22;48848;39.002;-94.584;2022-10-29T08:01:27;18.50;46.00
62809;DHT22;48848;39.002;-94.584;2022-10-29T08:03:53;18.40;46.00
62809;DHT22;48848;39.002;-94.584;2022-10-29T08:06:19;18.40;46.20
62809;DHT22;48848;39.002;-94.584;2022-10-29T08:08:46;18.40;46.10
62809;DHT22;48848;39.002;-94.584;2022-10-29T08:11:12;18.40;46.10
62809;DHT22;48848;39.002;-94.584;2022-10-29T08:13:38;18.40;46.20
62809;DHT22;48848;39.002;-94.584;2022-10-29T08:16:04;18.30;46.40
62809;DHT22;48848;39.002;-94.584;2022-10-29T08:18:30;18.30;46.00
62809;DHT22;48848;39.002;-94.584;2022-10-29T08:20:57;18.30;46.00
62809;DHT22;48848;39.002;-94.584;2022-10-29T08:23:23;18.30;46.40
62809;DHT22;48848;39.002;-94.584;2022-10-29T08:25:49;18.20;46.10
62809;DHT22;48848;39.002;-94.584;2022-10-29T08:28:15;18.20;46.20
62809;DHT22;48848;39.002;-94.584;2022-10-29T08:30:42;18.20;46.40
62809;DHT22;48848;39.002;-94.584;2022-10-29T08:33:09;18.20;46.30
62809;DHT22;48848;39.002;-94.584;2022-10-29T08:35:35;18.10;46.40
62809;DHT22;48848;39.002;-94.584;2022-10-29T08:38:02;18.10;46.40
62809;DHT22;48848;39.002;-94.584;2022-10-29T08:40:29;18.10;46.60
62809;DHT22;48848;39.002;-94.584;2022-10-29T08:45:54;18.00;46.70
62809;DHT22;48848;39.002;-94.584;2022-10-29T08:51:12;18.00;46.80
62809;DHT22;48848;39.002;-94.584;2022-10-29T08:53:59;18.00;46.70
62809;DHT22;48848;39.002;-94.584;2022-10-29T08:56:28;18.00;46.90
62809;DHT22;48848;39.002;-94.584;2022-10-29T08:59:17;18.00;46.80
62809;DHT22;48848;39.002;-94.584;2022-10-29T09:01:45;17.90;46.70
62809;DHT22;48848;39.002;-94.584;2022-10-29T09:12:41;17.80;47.00
62809;DHT22;48848;39.002;-94.584;2022-10-29T09:26:11;17.70;47.00
62809;DHT22;48848;39.002;-94.584;2022-10-29T09:32:03;17.70;48.00
62809;DHT22;48848;39.002;-94.584;2022-10-29T09:34:40;17.60;47.10
62809;DHT22;48848;39.002;-94.584;2022-10-29T09:37:16;17.60;47.20
62809;DHT22;48848;39.002;-94.584;2022-10-29T09:39:45;17.60;47.00
62809;DHT22;48848;39.002;-94.584;2022-10-29T09:42:19;17.60;48.20
62809;DHT22;48848;39.002;-94.584;2022-10-29T09:44:59;17.50;47.20
62809;DHT22;48848;39.002;-94.584;2022-10-29T09:50:40;17.50;47.00
62809;DHT22;48848;39.002;-94.584;2022-10-29T09:53:07;17.50;47.00
62809;DHT22;48848;39.002;-94.584;2022-10-29T09:55:44;17.50;47.30
62809;DHT22;48848;39.002;-94.584;2022-10-29T09:58:27;17.50;47.20
62809;DHT22;48848;39.002;-94.584;2022-10-29T10:00:54;17.40;47.10
62809;DHT22;48848;39.002;-94.584;2022-10-29T10:03:35;17.40;47.30
62809;DHT22;48848;39.002;-94.584;2022-10-29T10:06:04;17.40;47.10
62809;DHT22;48848;39.002;-94.584;2022-10-29T10:08:32;17.40;47.20
62809;DHT22;48848;39.002;-94.584;2022-10-29T10:11:03;17.30;47.30
62809;DHT22;48848;39.002;-94.584;2022-10-29T10:13:37;17.30;47.30
62809;DHT22;48848;39.002;-94.584;2022-10-29T10:16:23;17.30;47.40
62809;DHT22;48848;39.002;-94.584;2022-10-29T10:18:49;17.30;47.50
62809;DHT22;48848;39.002;-94.584;2022-10-29T10:21:26;17.30;47.50
62809;DHT22;48848;39.002;-94.584;2022-10-29T10:23:53;17.30;47.50
62809;DHT22;48848;39.002;-94.584;2022-10-29T10:26:39;17.20;47.30
62809;DHT22;48848;39.002;-94.584;2022-10-29T10:29:20;17.20;47.60
62809;DHT22;48848;39.002;-94.584;2022-10-29T10:31:49;17.20;47.50
62809;DHT22;48848;39.002;-94.584;2022-10-29T10:34:20;17.20;47.70
62809;DHT22;48848;39.002;-94.584;2022-10-29T10:41:54;17.10;47.80
62809;DHT22;48848;39.002;-94.584;2022-10-29T10:44:22;17.10;47.60
62809;DHT22;48848;39.002;-94.584;2022-10-29T10:46:50;17.10;47.70
62809;DHT22;48848;39.002;-94.584;2022-10-29T10:49:34;17.10;47.70
62809;DHT22;48848;39.002;-94.584;2022-10-29T10:52:13;17.00;47.50
62809;DHT22;48848;39.002;-94.584;2022-10-29T10:54:44;17.10;49.60
62809;DHT22;48848;39.002;-94.584;2022-10-29T10:59:45;17.50;49.50
62809;DHT22;48848;39.002;-94.584;2022-10-29T11:04:59;18.00;49.00
62809;DHT22;48848;39.002;-94.584;2022-10-29T11:07:31;18.20;48.30
62809;DHT22;48848;39.002;-94.584;2022-10-29T11:10:02;18.10;48.40
62809;DHT22;48848;39.002;-94.584;2022-10-29T11:12:50;18.10;48.00
62809;DHT22;48848;39.002;-94.584;2022-10-29T11:15:47;18.10;47.30
62809;DHT22;48848;39.002;-94.584;2022-10-29T11:18:38;18.10;47.60
62809;DHT22;48848;39.002;-94.584;2022-10-29T11:24:05;18.00;47.00
62809;DHT22;48848;39.002;-94.584;2022-10-29T11:26:40;18.00;49.00
62809;DHT22;48848;39.002;-94.584;2022-10-29T11:32:18;18.40;48.80
62809;DHT22;48848;39.002;-94.584;2022-10-29T11:40:16;18.50;47.70
62809;DHT22;48848;39.002;-94.584;2022-10-29T11:42:43;18.40;46.70
62809;DHT22;48848;39.002;-94.584;2022-10-29T11:45:24;18.40;46.70
62809;DHT22;48848;39.002;-94.584;2022-10-29T11:50:57;18.30;46.80
62809;DHT22;48848;39.002;-94.584;2022-10-29T11:57:02;18.20;46.60
62809;DHT22;48848;39.002;-94.584;2022-10-29T12:10:37;18.10;49.10
62809;DHT22;48848;39.002;-94.584;2022-10-29T12:30:00;18.30;47.00
62809;DHT22;48848;39.002;-94.584;2022-10-29T12:32:37;18.20;47.20
62809;DHT22;48848;39.002;-94.584;2022-10-29T12:38:34;18.10;47.20
62809;DHT22;48848;39.002;-94.584;2022-10-29T12:41:18;18.00;47.20
62809;DHT22;48848;39.002;-94.584;2022-10-29T12:43:46;18.00;47.20
62809;DHT22;48848;39.002;-94.584;2022-10-29T12:56:47;18.40;48.50
62809;DHT22;48848;39.002;-94.584;2022-10-29T13:01:53;18.30;48.50
62809;DHT22;48848;39.002;-94.584;2022-10-29T13:04:27;18.20;48.70
62809;DHT22;48848;39.002;-94.584;2022-10-29T13:08:06;18.20;48.80
62809;DHT22;48848;39.002;-94.584;2022-10-29T13:10:56;18.10;48.80
62809;DHT22;48848;39.002;-94.584;2022-10-29T13:15:42;18.00;49.00
62809;DHT22;48848;39.002;-94.584;2022-10-29T13:20:42;17.90;48.50
62809;DHT22;48848;39.002;-94.584;2022-10-29T13:25:52;17.80;48.20
62809;DHT22;48848;39.002;-94.584;2022-10-29T13:30:49;17.80;48.20
62809;DHT22;48848;39.002;-94.584;2022-10-29T13:36:07;17.80;48.10
62809;DHT22;48848;39.002;-94.584;2022-10-29T13:44:10;17.70;49.50
62809;DHT22;48848;39.002;-94.584;2022-10-29T13:49:20;18.20;49.20
62809;DHT22;48848;39.002;-94.584;2022-10-29T13:51:54;18.30;48.50
62809;DHT22;48848;39.002;-94.584;2022-10-29T13:57:06;18.20;49.30
62809;DHT22;48848;39.002;-94.584;2022-10-29T14:04:49;18.10;49.20
62809;DHT22;48848;39.002;-94.584;2022-10-29T14:07:22;18.10;48.20
62809;DHT22;48848;39.002;-94.584;2022-10-29T14:09:57;18.10;48.50
62809;DHT22;48848;39.002;-94.584;2022-10-29T14:12:28;18.10;48.50
62809;DHT22;48848;39.002;-94.584;2022-10-29T14:17:27;18.10;49.20
62809;DHT22;48848;39.002;-94.584;2022-10-29T14:19:54;18.00;48.90
62809;DHT22;48848;39.002;-94.584;2022-10-29T14:24:52;18.00;48.70
62809;DHT22;48848;39.002;-94.584;2022-10-29T14:27:18;17.90;48.40
62809;DHT22;48848;39.002;-94.584;2022-10-29T14:29:44;17.90;48.70
62809;DHT22;48848;39.002;-94.584;2022-10-29T14:32:13;17.90;48.80
62809;DHT22;48848;39.002;-94.584;2022-10-29T14:34:41;17.90;49.90
62809;DHT22;48848;39.002;-94.584;2022-10-29T14:37:39;18.10;50.20
62809;DHT22;48848;39.002;-94.584;2022-10-29T14:40:19;18.30;50.00
62809;DHT22;48848;39.002;-94.584;2022-10-29T14:42:51;18.40;49.30
62809;DHT22;48848;39.002;-94.584;2022-10-29T14:45:26;18.50;48.60
62809;DHT22;48848;39.002;-94.584;2022-10-29T14:47:57;18.50;48.30
62809;DHT22;48848;39.002;-94.584;2022-10-29T14:50:28;18.40;48.50
62809;DHT22;48848;39.002;-94.584;2022-10-29T14:53:03;18.40;48.30
62809;DHT22;48848;39.002;-94.584;2022-10-29T14:55:35;18.40;48.60
62809;DHT22;48848;39.002;-94.584;2022-10-29T15:00:48;18.30;49.20
62809;DHT22;48848;39.002;-94.584;2022-10-29T15:03:20;18.30;48.30
62809;DHT22;48848;39.002;-94.584;2022-10-29T15:05:47;18.30;48.40
62809;DHT22;48848;39.002;-94.584;2022-10-29T15:08:22;18.20;48.20
62809;DHT22;48848;39.002;-94.584;2022-10-29T15:10:56;18.20;48.20
62809;DHT22;48848;39.002;-94.584;2022-10-29T15:15:55;18.20;48.10
62809;DHT22;48848;39.002;-94.584;2022-10-29T15:18:22;18.20;48.30
62809;DHT22;48848;39.002;-94.584;2022-10-29T15:20:52;18.10;48.30
62809;DHT22;48848;39.002;-94.584;2022-10-29T15:23:24;18.10;48.30
62809;DHT22;48848;39.002;-94.584;2022-10-29T15:26:04;18.20;48.60
62809;DHT22;48848;39.002;-94.584;2022-10-29T15:28:43;18.20;48.60
62809;DHT22;48848;39.002;-94.584;2022-10-29T15:31:43;18.20;49.40
62809;DHT22;48848;39.002;-94.584;2022-10-29T15:34:18;18.40;49.80
62809;DHT22;48848;39.002;-94.584;2022-10-29T15:36:51;18.70;49.60
62809;DHT22;48848;39.002;-94.584;2022-10-29T15:39:28;18.80;49.00
62809;DHT22;48848;39.002;-94.584;2022-10-29T15:41:57;18.90;48.90
62809;DHT22;48848;39.002;-94.584;2022-10-29T15:44:36;18.80;49.00
62809;DHT22;48848;39.002;-94.584;2022-10-29T15:47:19;18.90;48.60
62809;DHT22;48848;39.002;-94.584;2022-10-29T15:49:45;18.90;48.60
62809;DHT22;48848;39.002;-94.584;2022-10-29T15:52:16;19.00;49.70
62809;DHT22;48848;39.002;-94.584;2022-10-29T15:54:44;19.00;48.60
62809;DHT22;48848;39.002;-94.584;2022-10-29T15:57:13;19.00;48.40
62809;DHT22;48848;39.002;-94.584;2022-10-29T15:59:40;19.00;47.80
62809;DHT22;48848;39.002;-94.584;2022-10-29T16:02:13;19.00;48.50
62809;DHT22;48848;39.002;-94.584;2022-10-29T16:04:42;19.00;48.30
62809;DHT22;48848;39.002;-94.584;2022-10-29T16:07:11;19.00;47.90
62809;DHT22;48848;39.002;-94.584;2022-10-29T16:09:42;19.00;48.70
62809;DHT22;48848;39.002;-94.584;2022-10-29T16:12:10;19.20;48.90
62809;DHT22;48848;39.002;-94.584;2022-10-29T16:14:36;19.40;49.00
62809;DHT22;48848;39.002;-94.584;2022-10-29T16:17:02;19.70;48.70
62809;DHT22;48848;39.002;-94.584;2022-10-29T16:19:29;20.00;48.50
62809;DHT22;48848;39.002;-94.584;2022-10-29T16:21:55;20.30;47.80
62809;DHT22;48848;39.002;-94.584;2022-10-29T16:24:21;20.20;47.90
62809;DHT22;48848;39.002;-94.584;2022-10-29T16:26:47;20.10;47.70
62809;DHT22;48848;39.002;-94.584;2022-10-29T16:29:13;20.00;47.80
62809;DHT22;48848;39.002;-94.584;2022-10-29T16:31:42;20.00;48.00
62809;DHT22;48848;39.002;-94.584;2022-10-29T16:34:11;19.90;48.10
62809;DHT22;48848;39.002;-94.584;2022-10-29T16:36:38;19.90;48.20
62809;DHT22;48848;39.002;-94.584;2022-10-29T16:39:04;19.80;48.30
62809;DHT22;48848;39.002;-94.584;2022-10-29T16:41:32;19.80;48.40
62809;DHT22;48848;39.002;-94.584;2022-10-29T16:43:59;19.80;48.40
62809;DHT22;48848;39.002;-94.584;2022-10-29T16:46:25;19.80;48.40
62809;DHT22;48848;39.002;-94.584;2022-10-29T16:48:52;19.80;48.40
62809;DHT22;48848;39.002;-94.584;2022-10-29T16:51:18;19.80;48.30
62809;DHT22;48848;39.002;-94.584;2022-10-29T16:53:45;19.80;48.30
62809;DHT22;48848;39.002;-94.584;2022-10-29T16:56:11;19.80;49.20
62809;DHT22;48848;39.002;-94.584;2022-10-29T16:58:37;19.90;48.10
62809;DHT22;48848;39.002;-94.584;2022-10-29T17:01:07;19.90;48.40
62809;DHT22;48848;39.002;-94.584;2022-10-29T17:03:35;20.10;48.40
62809;DHT22;48848;39.002;-94.584;2022-10-29T17:06:06;20.40;48.20
62809;DHT22;48848;39.002;-94.584;2022-10-29T17:08:33;20.60;47.60
62809;DHT22;48848;39.002;-94.584;2022-10-29T17:11:01;20.60;47.20
62809;DHT22;48848;39.002;-94.584;2022-10-29T17:13:29;20.50;47.10
62809;DHT22;48848;39.002;-94.584;2022-10-29T17:15:55;20.60;47.20
62809;DHT22;48848;39.002;-94.584;2022-10-29T17:18:21;20.50;47.40
62809;DHT22;48848;39.002;-94.584;2022-10-29T17:20:58;20.50;47.30
62809;DHT22;48848;39.002;-94.584;2022-10-29T17:23:25;20.50;47.40
62809;DHT22;48848;39.002;-94.584;2022-10-29T17:25:53;20.50;47.50
62809;DHT22;48848;39.002;-94.584;2022-10-29T17:28:21;20.50;47.50
62809;DHT22;48848;39.002;-94.584;2022-10-29T17:30:47;20.50;47.50
62809;DHT22;48848;39.002;-94.584;2022-10-29T17:33:14;20.50;47.60
62809;DHT22;48848;39.002;-94.584;2022-10-29T17:35:41;20.40;47.40
62809;DHT22;48848;39.002;-94.584;2022-10-29T17:38:07;20.50;47.40
62809;DHT22;48848;39.002;-94.584;2022-10-29T17:40:34;20.50;47.50
62809;DHT22;48848;39.002;-94.584;2022-10-29T17:43:00;20.50;47.50
62809;DHT22;48848;39.002;-94.584;2022-10-29T17:45:27;20.50;47.40
62809;DHT22;48848;39.002;-94.584;2022-10-29T17:47:54;20.50;47.30
62809;DHT22;48848;39.002;-94.584;2022-10-29T17:50:20;20.50;47.40
62809;DHT22;48848;39.002;-94.584;2022-10-29T17:52:46;20.50;47.40
62809;DHT22;48848;39.002;-94.584;2022-10-29T17:55:13;20.50;47.40
62809;DHT22;48848;39.002;-94.584;2022-10-29T17:57:39;20.50;47.40
62809;DHT22;48848;39.002;-94.584;2022-10-29T18:00:05;20.50;47.30
62809;DHT22;48848;39.002;-94.584;2022-10-29T18:02:32;20.50;47.40
62809;DHT22;48848;39.002;-94.584;2022-10-29T18:04:58;20.50;47.40
62809;DHT22;48848;39.002;-94.584;2022-10-29T18:07:24;20.50;47.10
62809;DHT22;48848;39.002;-94.584;2022-10-29T18:09:50;20.60;47.10
62809;DHT22;48848;39.002;-94.584;2022-10-29T18:12:16;20.60;47.00